createdAt,value
2023-05-14T00:00:37.153Z,10.81
2023-05-14T00:03:03.490Z,10.82
2023-05-14T00:05:29.803Z,10.81
2023-05-14T00:07:56.095Z,10.84
2023-05-14T00:10:22.701Z,10.89
2023-05-14T00:12:49.110Z,10.62
2023-05-14T00:15:15.350Z,10.52
2023-05-14T00:17:41.641Z,10.61
2023-05-14T00:20:07.901Z,10.70
2023-05-14T00:22:34.128Z,10.77
2023-05-14T00:25:00.371Z,10.84
2023-05-14T00:27:26.611Z,10.92
2023-05-14T00:29:52.843Z,10.98
2023-05-14T00:32:19.114Z,11.03
2023-05-14T00:34:45.404Z,11.04
2023-05-14T00:37:11.667Z,11.08
2023-05-14T00:39:37.918Z,11.04
2023-05-14T00:42:04.137Z,11.00
2023-05-14T00:44:30.405Z,10.98
2023-05-14T00:46:56.728Z,10.94
2023-05-14T00:49:23.003Z,10.95
2023-05-14T00:51:49.232Z,10.96
2023-05-14T00:54:15.596Z,10.96
2023-05-14T00:56:41.872Z,10.89
2023-05-14T00:59:08.124Z,10.90
2023-05-14T01:01:34.527Z,10.84
2023-05-14T01:04:01.121Z,10.83
2023-05-14T01:06:27.492Z,10.81
2023-05-14T01:08:53.762Z,10.85
2023-05-14T01:11:20.055Z,10.86
2023-05-14T01:13:46.307Z,10.85
2023-05-14T01:16:12.614Z,10.87
2023-05-14T01:18:38.913Z,10.89
2023-05-14T01:21:05.171Z,10.93
2023-05-14T01:23:31.463Z,10.96
2023-05-14T01:25:57.768Z,10.96
2023-05-14T01:28:24.047Z,10.99
2023-05-14T01:30:50.321Z,10.99
2023-05-14T01:33:16.560Z,11.02
2023-05-14T01:35:42.811Z,11.04
2023-05-14T01:38:09.063Z,11.04
2023-05-14T01:40:35.313Z,11.03
2023-05-14T01:43:01.692Z,11.02
2023-05-14T01:45:27.951Z,11.01
2023-05-14T01:47:54.331Z,11.01
2023-05-14T01:50:20.708Z,11.04
2023-05-14T01:52:46.968Z,11.05
2023-05-14T01:55:13.300Z,11.02
2023-05-14T01:57:39.613Z,11.00
2023-05-14T02:00:05.864Z,11.00
2023-05-14T02:02:32.098Z,11.01
2023-05-14T02:04:58.328Z,11.00
2023-05-14T02:07:24.579Z,10.98
2023-05-14T02:09:50.829Z,10.91
2023-05-14T02:12:17.047Z,10.87
2023-05-14T02:14:43.294Z,10.90
2023-05-14T02:17:09.611Z,10.92
2023-05-14T02:19:35.857Z,10.90
2023-05-14T02:22:02.093Z,10.85
2023-05-14T02:24:28.344Z,10.89
2023-05-14T02:26:54.594Z,10.90
2023-05-14T02:29:20.862Z,10.91
2023-05-14T02:31:47.191Z,10.93
2023-05-14T02:34:13.476Z,10.93
2023-05-14T02:36:39.698Z,10.87
2023-05-14T02:39:05.933Z,10.76
2023-05-14T02:41:32.228Z,10.71
2023-05-14T02:43:58.483Z,10.69
2023-05-14T02:46:24.812Z,10.69
2023-05-14T02:48:51.129Z,10.66
2023-05-14T02:51:17.368Z,10.59
2023-05-14T02:53:43.619Z,10.57
2023-05-14T02:56:09.872Z,10.46
2023-05-14T02:58:36.092Z,10.43
2023-05-14T03:01:02.417Z,10.48
2023-05-14T03:03:29.398Z,10.46
2023-05-14T03:05:56.244Z,10.44
2023-05-14T03:08:22.531Z,10.49
2023-05-14T03:10:48.775Z,10.48
2023-05-14T03:13:15.032Z,10.46
2023-05-14T03:15:41.288Z,10.47
2023-05-14T03:18:07.613Z,10.48
2023-05-14T03:20:33.897Z,10.49
2023-05-14T03:23:00.165Z,10.47
2023-05-14T03:25:26.406Z,10.49
2023-05-14T03:27:52.675Z,10.43
2023-05-14T03:30:18.930Z,10.48
2023-05-14T03:32:45.227Z,10.46
2023-05-14T03:35:11.488Z,10.43
2023-05-14T03:37:37.769Z,10.45
2023-05-14T03:40:04.009Z,10.36
2023-05-14T03:42:30.251Z,10.35
2023-05-14T03:44:56.493Z,10.32
2023-05-14T03:47:22.753Z,10.30
2023-05-14T03:49:49.017Z,10.31
2023-05-14T03:52:15.264Z,10.26
2023-05-14T03:54:41.496Z,10.22
2023-05-14T03:57:07.740Z,10.18
2023-05-14T03:59:33.973Z,10.13
2023-05-14T04:02:00.211Z,10.13
2023-05-14T04:04:26.569Z,10.13
2023-05-14T04:06:52.825Z,10.08
2023-05-14T04:09:19.117Z,10.05
2023-05-14T04:11:45.425Z,10.05
2023-05-14T04:14:11.652Z,10.02
2023-05-14T04:16:37.928Z,9.96
2023-05-14T04:19:04.277Z,9.92
2023-05-14T04:21:30.578Z,9.89
2023-05-14T04:23:56.904Z,9.80
2023-05-14T04:26:23.217Z,9.75
2023-05-14T04:28:49.484Z,9.83
2023-05-14T04:31:15.789Z,9.89
2023-05-14T04:33:42.022Z,9.98
2023-05-14T04:36:08.289Z,10.04
2023-05-14T04:38:34.522Z,10.08
2023-05-14T04:41:00.776Z,10.14
2023-05-14T04:43:27.059Z,10.19
2023-05-14T04:45:53.389Z,10.22
2023-05-14T04:48:19.652Z,10.28
2023-05-14T04:50:45.892Z,10.30
2023-05-14T04:53:12.175Z,10.33
2023-05-14T04:55:38.426Z,10.38
2023-05-14T04:58:04.662Z,10.42
2023-05-14T05:00:30.893Z,10.50
2023-05-14T05:02:57.185Z,10.55
2023-05-14T05:05:23.453Z,10.60
2023-05-14T05:07:49.708Z,10.65
2023-05-14T05:10:15.972Z,10.72
2023-05-14T05:12:42.245Z,10.73
2023-05-14T05:15:08.495Z,10.75
2023-05-14T05:17:34.798Z,10.76
2023-05-14T05:20:01.117Z,10.78
2023-05-14T05:22:27.392Z,10.80
2023-05-14T05:24:53.653Z,10.82
2023-05-14T05:27:19.886Z,10.88
2023-05-14T05:29:46.160Z,10.95
2023-05-14T05:32:12.503Z,10.98
2023-05-14T05:34:38.732Z,11.03
2023-05-14T05:37:04.981Z,11.01
2023-05-14T05:39:31.232Z,11.02
2023-05-14T05:41:57.459Z,11.13
2023-05-14T05:44:23.682Z,11.17
2023-05-14T05:46:49.968Z,11.20
2023-05-14T05:49:16.272Z,11.14
2023-05-14T05:51:42.543Z,11.15
2023-05-14T05:54:08.752Z,11.21
2023-05-14T05:56:34.998Z,11.29
2023-05-14T05:59:01.216Z,11.31
2023-05-14T06:01:27.504Z,11.37
2023-05-14T06:03:53.810Z,11.46
2023-05-14T06:06:20.069Z,11.49
2023-05-14T06:08:46.306Z,11.61
2023-05-14T06:11:12.543Z,11.72
2023-05-14T06:13:38.826Z,11.78
2023-05-14T06:16:05.113Z,11.85
2023-05-14T06:18:31.447Z,11.86
2023-05-14T06:20:57.817Z,11.80
2023-05-14T06:23:24.114Z,11.95
2023-05-14T06:25:50.851Z,12.06
2023-05-14T06:28:17.237Z,12.12
2023-05-14T06:30:43.526Z,12.22
2023-05-14T06:33:09.812Z,12.33
2023-05-14T06:35:36.161Z,12.38
2023-05-14T06:38:02.410Z,12.44
2023-05-14T06:40:29.822Z,12.50
2023-05-14T06:42:56.072Z,12.55
2023-05-14T06:45:22.342Z,12.61
2023-05-14T06:47:48.614Z,12.60
2023-05-14T06:50:14.918Z,12.62
2023-05-14T06:52:41.191Z,12.62
2023-05-14T06:55:07.437Z,12.67
2023-05-14T06:57:33.727Z,12.81
2023-05-14T07:00:00.095Z,12.97
2023-05-14T07:02:26.436Z,13.13
2023-05-14T07:04:52.766Z,13.22
2023-05-14T07:07:19.001Z,13.28
2023-05-14T07:09:45.251Z,13.36
2023-05-14T07:12:11.500Z,13.58
2023-05-14T07:14:37.721Z,13.79
2023-05-14T07:17:03.993Z,13.99
2023-05-14T07:19:30.324Z,14.14
2023-05-14T07:21:56.544Z,14.28
2023-05-14T07:24:22.784Z,14.37
2023-05-14T07:26:49.012Z,14.41
2023-05-14T07:29:15.320Z,14.53
2023-05-14T07:31:41.646Z,14.62
2023-05-14T07:34:07.906Z,14.74
2023-05-14T07:36:34.161Z,14.93
2023-05-14T07:39:00.383Z,14.56
2023-05-14T07:41:26.625Z,14.76
2023-05-14T07:43:52.858Z,14.85
2023-05-14T07:46:19.074Z,14.91
2023-05-14T07:48:45.673Z,14.44
2023-05-14T07:51:11.997Z,14.40
2023-05-14T07:53:38.219Z,14.26
2023-05-14T07:56:04.480Z,14.21
2023-05-14T07:58:30.785Z,13.81
2023-05-14T08:00:57.038Z,13.87
2023-05-14T08:03:23.548Z,13.99
2023-05-14T08:05:49.865Z,13.89
2023-05-14T08:08:16.108Z,13.74
2023-05-14T08:10:42.398Z,13.57
2023-05-14T08:13:08.661Z,13.30
2023-05-14T08:15:34.905Z,13.50
2023-05-14T08:18:01.290Z,13.63
2023-05-14T08:20:27.813Z,13.81
2023-05-14T08:22:54.182Z,13.91
2023-05-14T08:25:20.445Z,14.13
2023-05-14T08:27:46.706Z,14.34
2023-05-14T08:30:12.994Z,14.61
2023-05-14T08:32:39.289Z,14.82
2023-05-14T08:35:05.557Z,14.99
2023-05-14T08:37:31.806Z,15.11
2023-05-14T08:39:58.101Z,15.27
2023-05-14T08:42:24.355Z,15.50
2023-05-14T08:44:50.586Z,15.65
2023-05-14T08:47:16.826Z,15.87
2023-05-14T08:49:43.051Z,16.07
2023-05-14T08:52:09.356Z,16.19
2023-05-14T08:54:35.622Z,16.42
2023-05-14T08:57:01.848Z,16.66
2023-05-14T08:59:28.099Z,16.56
2023-05-14T09:01:54.388Z,16.32
2023-05-14T09:04:20.794Z,16.23
2023-05-14T09:06:47.166Z,16.39
2023-05-14T09:09:13.416Z,16.51
2023-05-14T09:11:39.656Z,16.16
2023-05-14T09:14:05.910Z,16.04
2023-05-14T09:16:32.202Z,15.76
2023-05-14T09:18:58.572Z,15.85
2023-05-14T09:21:24.844Z,15.92
2023-05-14T09:23:51.085Z,16.18
2023-05-14T09:26:17.352Z,16.57
2023-05-14T09:28:43.639Z,17.00
2023-05-14T09:31:09.957Z,17.33
2023-05-14T09:33:36.208Z,17.72
2023-05-14T09:36:02.511Z,17.82
2023-05-14T09:38:28.804Z,17.83
2023-05-14T09:40:55.044Z,16.94
2023-05-14T09:43:21.291Z,16.48
2023-05-14T09:45:47.544Z,15.84
2023-05-14T09:48:13.879Z,16.02
2023-05-14T09:50:40.214Z,15.21
2023-05-14T09:53:06.452Z,15.05
2023-05-14T09:55:32.684Z,14.98
2023-05-14T09:57:58.914Z,14.99
2023-05-14T10:00:25.427Z,15.40
2023-05-14T10:02:51.911Z,15.61
2023-05-14T10:05:18.183Z,15.59
2023-05-14T10:07:44.419Z,15.87
2023-05-14T10:10:10.652Z,15.92
2023-05-14T10:12:36.902Z,15.90
2023-05-14T10:15:03.146Z,15.90
2023-05-14T10:17:29.474Z,15.73
2023-05-14T10:19:55.751Z,15.64
2023-05-14T10:22:22.029Z,15.01
2023-05-14T10:24:48.275Z,14.99
2023-05-14T10:27:14.538Z,14.92
2023-05-14T10:29:40.793Z,15.08
2023-05-14T10:32:07.175Z,15.32
2023-05-14T10:34:33.528Z,15.46
2023-05-14T10:36:59.791Z,15.55
2023-05-14T10:39:26.034Z,15.54
2023-05-14T10:41:52.289Z,15.70
2023-05-14T10:44:18.571Z,15.98
2023-05-14T10:46:44.828Z,16.43
2023-05-14T10:49:11.144Z,16.33
2023-05-14T10:51:37.549Z,16.74
2023-05-14T10:54:03.948Z,16.41
2023-05-14T10:56:30.195Z,16.66
2023-05-14T10:58:56.444Z,16.64
2023-05-14T11:01:22.707Z,16.66
2023-05-14T11:03:48.980Z,16.93
2023-05-14T11:06:15.355Z,16.16
2023-05-14T11:08:41.651Z,16.68
2023-05-14T11:11:09.299Z,16.69
2023-05-14T11:13:35.542Z,16.46
2023-05-14T11:16:08.688Z,16.53
2023-05-14T11:18:41.893Z,16.41
2023-05-14T11:21:08.353Z,16.51
2023-05-14T11:23:34.605Z,16.80
2023-05-14T11:26:00.909Z,17.11
2023-05-14T11:28:27.224Z,17.41
2023-05-14T11:30:53.492Z,17.31
2023-05-14T11:33:19.806Z,17.36
2023-05-14T11:35:46.075Z,17.24
2023-05-14T11:38:12.326Z,17.41
2023-05-14T11:40:38.554Z,17.69
2023-05-14T11:43:04.795Z,17.52
2023-05-14T11:45:31.019Z,17.77
2023-05-14T11:47:57.474Z,18.19
2023-05-14T11:50:24.193Z,18.41
2023-05-14T11:52:50.622Z,17.92
2023-05-14T11:55:16.918Z,18.04
2023-05-14T11:57:43.168Z,18.57
2023-05-14T12:00:09.411Z,18.39
2023-05-14T12:02:35.735Z,17.89
2023-05-14T12:05:02.053Z,17.94
2023-05-14T12:07:28.436Z,17.46
2023-05-14T12:09:54.665Z,17.88
2023-05-14T12:12:20.899Z,17.86
2023-05-14T12:14:47.152Z,17.69
2023-05-14T12:17:13.436Z,18.24
2023-05-14T12:19:39.669Z,18.24
2023-05-14T12:22:05.917Z,18.28
2023-05-14T12:24:32.177Z,17.81
2023-05-14T12:26:58.392Z,17.78
2023-05-14T12:29:24.664Z,17.91
2023-05-14T12:31:51.043Z,18.27
2023-05-14T12:34:17.394Z,18.62
2023-05-14T12:36:43.618Z,17.96
2023-05-14T12:39:09.849Z,17.47
2023-05-14T12:41:36.098Z,17.23
2023-05-14T12:44:02.348Z,17.44
2023-05-14T12:46:28.599Z,16.42
2023-05-14T12:48:54.925Z,16.56
2023-05-14T12:51:21.154Z,16.54
2023-05-14T12:53:47.478Z,16.25
2023-05-14T12:56:13.734Z,16.34
2023-05-14T12:58:39.971Z,16.08
2023-05-14T13:01:06.255Z,16.46
2023-05-14T13:03:32.535Z,16.47
2023-05-14T13:05:58.778Z,16.63
2023-05-14T13:08:25.036Z,16.32
2023-05-14T13:10:51.252Z,16.41
2023-05-14T13:13:17.511Z,16.11
2023-05-14T13:15:43.748Z,16.12
2023-05-14T13:18:10.080Z,16.23
2023-05-14T13:20:36.444Z,16.17
2023-05-14T13:23:02.701Z,16.07
2023-05-14T13:25:29.026Z,16.24
2023-05-14T13:27:55.312Z,16.08
2023-05-14T13:30:21.557Z,16.20
2023-05-14T13:32:47.817Z,16.40
2023-05-14T13:35:14.201Z,16.38
2023-05-14T13:37:40.455Z,16.64
2023-05-14T13:40:06.683Z,16.66
2023-05-14T13:42:32.941Z,16.49
2023-05-14T13:44:59.197Z,16.02
2023-05-14T13:47:25.462Z,16.04
2023-05-14T13:49:51.703Z,16.17
2023-05-14T13:52:17.934Z,16.51
2023-05-14T13:54:44.174Z,16.36
2023-05-14T13:57:10.400Z,17.00
2023-05-14T13:59:36.647Z,17.23
2023-05-14T14:02:03.054Z,17.58
2023-05-14T14:04:29.476Z,17.16
2023-05-14T14:06:55.776Z,17.33
2023-05-14T14:09:22.032Z,17.87
2023-05-14T14:11:48.303Z,17.92
2023-05-14T14:14:14.541Z,17.88
2023-05-14T14:16:40.894Z,17.51
2023-05-14T14:19:07.414Z,17.07
2023-05-14T14:21:33.745Z,16.41
2023-05-14T14:23:59.980Z,16.16
2023-05-14T14:26:26.306Z,16.19
2023-05-14T14:28:52.536Z,15.97
2023-05-14T14:31:18.815Z,16.05
2023-05-14T14:33:45.754Z,15.85
2023-05-14T14:36:11.999Z,16.32
2023-05-14T14:38:38.295Z,15.86
2023-05-14T14:41:04.575Z,16.37
2023-05-14T14:43:30.818Z,15.83
2023-05-14T14:45:57.065Z,15.72
2023-05-14T14:48:23.347Z,15.74
2023-05-14T14:50:49.583Z,16.01
2023-05-14T14:53:15.873Z,16.34
2023-05-14T14:55:42.098Z,16.07
2023-05-14T14:58:08.342Z,16.14
2023-05-14T15:00:34.601Z,16.37
2023-05-14T15:03:00.975Z,16.03
2023-05-14T15:05:27.310Z,15.67
2023-05-14T15:07:53.578Z,15.65
2023-05-14T15:10:19.847Z,16.02
2023-05-14T15:12:46.118Z,16.45
2023-05-14T15:15:12.414Z,16.92
2023-05-14T15:17:38.784Z,17.08
2023-05-14T15:20:05.109Z,17.02
2023-05-14T15:22:31.368Z,16.93
2023-05-14T15:24:57.592Z,17.05
2023-05-14T15:27:23.822Z,17.04
2023-05-14T15:29:50.042Z,17.16
2023-05-14T15:32:16.373Z,17.31
2023-05-14T15:34:42.603Z,17.37
2023-05-14T15:37:08.831Z,17.11
2023-05-14T15:39:35.076Z,17.12
2023-05-14T15:42:01.329Z,16.36
2023-05-14T15:44:27.600Z,16.21
2023-05-14T15:46:53.911Z,16.37
2023-05-14T15:49:20.197Z,17.05
2023-05-14T15:51:46.506Z,17.40
2023-05-14T15:54:12.734Z,18.01
2023-05-14T15:56:38.975Z,18.25
2023-05-14T15:59:05.193Z,18.10
2023-05-14T16:01:31.493Z,18.06
2023-05-14T16:03:57.843Z,18.24
2023-05-14T16:06:24.115Z,18.10
2023-05-14T16:08:50.381Z,17.97
2023-05-14T16:11:18.024Z,17.37
2023-05-14T16:13:44.272Z,16.99
2023-05-14T16:16:10.598Z,16.90
2023-05-14T16:18:36.886Z,16.47
2023-05-14T16:21:03.163Z,16.46
2023-05-14T16:23:29.446Z,16.72
2023-05-14T16:25:55.757Z,17.15
2023-05-14T16:28:22.024Z,17.69
2023-05-14T16:30:48.247Z,17.90
2023-05-14T16:33:14.484Z,18.10
2023-05-14T16:35:40.719Z,18.09
2023-05-14T16:38:06.977Z,18.26
2023-05-14T16:40:33.254Z,18.58
2023-05-14T16:42:59.556Z,18.81
2023-05-14T16:45:26.086Z,19.00
2023-05-14T16:47:52.582Z,19.15
2023-05-14T16:50:18.832Z,19.20
2023-05-14T16:52:45.072Z,19.20
2023-05-14T16:55:11.300Z,19.12
2023-05-14T16:57:37.562Z,18.92
2023-05-14T17:00:03.799Z,18.47
2023-05-14T17:02:30.139Z,18.46
2023-05-14T17:04:56.568Z,17.75
2023-05-14T17:07:22.899Z,17.09
2023-05-14T17:09:49.203Z,16.73
2023-05-14T17:12:15.446Z,16.22
2023-05-14T17:14:41.681Z,15.82
2023-05-14T17:17:07.956Z,15.50
2023-05-14T17:19:34.299Z,14.85
2023-05-14T17:22:00.624Z,14.74
2023-05-14T17:24:26.862Z,14.78
2023-05-14T17:26:53.122Z,14.84
2023-05-14T17:29:19.407Z,14.88
2023-05-14T17:31:45.854Z,14.81
2023-05-14T17:34:12.222Z,14.70
2023-05-14T17:36:38.476Z,14.57
2023-05-14T17:39:04.746Z,14.63
2023-05-14T17:41:31.003Z,14.55
2023-05-14T17:43:57.271Z,14.27
2023-05-14T17:46:23.562Z,14.34
2023-05-14T17:48:49.836Z,14.53
2023-05-14T17:51:16.074Z,14.37
2023-05-14T17:53:42.312Z,14.47
2023-05-14T17:56:08.556Z,14.30
2023-05-14T17:58:35.294Z,13.85
2023-05-14T18:01:01.588Z,14.25
2023-05-14T18:03:27.999Z,14.56
2023-05-14T18:05:54.276Z,14.55
2023-05-14T18:08:20.515Z,14.63
2023-05-14T18:10:46.742Z,14.75
2023-05-14T18:13:12.962Z,14.88
2023-05-14T18:15:39.197Z,14.90
2023-05-14T18:18:05.497Z,14.80
2023-05-14T18:20:33.376Z,14.82
2023-05-14T18:23:00.322Z,14.66
2023-05-14T18:25:26.756Z,14.68
2023-05-14T18:27:53.088Z,14.66
2023-05-14T18:30:19.319Z,14.68
2023-05-14T18:32:45.631Z,14.69
2023-05-14T18:35:11.950Z,14.68
2023-05-14T18:37:38.185Z,14.65
2023-05-14T18:40:04.419Z,14.59
2023-05-14T18:42:30.682Z,14.57
2023-05-14T18:44:56.976Z,14.49
2023-05-14T18:47:23.231Z,14.43
2023-05-14T18:49:49.470Z,14.37
2023-05-14T18:52:15.754Z,14.32
2023-05-14T18:54:41.999Z,14.25
2023-05-14T18:57:08.240Z,14.09
2023-05-14T18:59:34.507Z,14.06
2023-05-14T19:02:00.892Z,14.03
2023-05-14T19:04:27.212Z,13.87
2023-05-14T19:06:53.471Z,13.81
2023-05-14T19:09:19.700Z,13.72
2023-05-14T19:11:45.926Z,13.67
2023-05-14T19:14:12.184Z,13.64
2023-05-14T19:16:38.473Z,13.61
2023-05-14T19:19:04.741Z,13.50
2023-05-14T19:21:31.019Z,13.40
2023-05-14T19:23:57.270Z,13.31
2023-05-14T19:26:23.532Z,13.09
2023-05-14T19:28:49.821Z,13.07
2023-05-14T19:31:16.198Z,13.03
2023-05-14T19:33:42.456Z,12.93
2023-05-14T19:36:08.686Z,12.84
2023-05-14T19:38:34.943Z,12.74
2023-05-14T19:41:01.200Z,12.61
2023-05-14T19:43:27.445Z,12.62
2023-05-14T19:45:53.676Z,12.56
2023-05-14T19:48:19.979Z,12.46
2023-05-14T19:50:46.235Z,12.54
2023-05-14T19:53:12.530Z,12.50
2023-05-14T19:55:38.770Z,12.46
2023-05-14T19:58:05.009Z,12.45
2023-05-14T20:00:31.265Z,12.36
2023-05-14T20:02:57.744Z,12.30
2023-05-14T20:05:24.104Z,12.26
2023-05-14T20:07:50.354Z,12.24
2023-05-14T20:10:16.601Z,12.18
2023-05-14T20:12:42.831Z,12.18
2023-05-14T20:15:09.071Z,12.17
2023-05-14T20:17:35.335Z,12.10
2023-05-14T20:20:01.669Z,12.07
2023-05-14T20:22:27.936Z,12.06
2023-05-14T20:24:54.191Z,12.03
2023-05-14T20:27:20.430Z,11.97
2023-05-14T20:29:46.730Z,11.98
2023-05-14T20:32:12.954Z,11.91
2023-05-14T20:34:39.179Z,11.92
2023-05-14T20:37:05.482Z,11.96
2023-05-14T20:39:31.722Z,12.00
2023-05-14T20:41:57.960Z,12.07
2023-05-14T20:44:24.188Z,12.08
2023-05-14T20:46:50.505Z,12.08
2023-05-14T20:49:16.842Z,12.07
2023-05-14T20:51:43.117Z,12.10
2023-05-14T20:54:09.398Z,12.09
2023-05-14T20:56:35.624Z,12.02
2023-05-14T20:59:01.858Z,11.99
2023-05-14T21:01:28.176Z,11.92
2023-05-14T21:03:54.642Z,11.88
2023-05-14T21:06:21.163Z,11.84
2023-05-14T21:08:47.413Z,11.77
2023-05-14T21:11:13.652Z,11.59
2023-05-14T21:13:39.876Z,11.55
2023-05-14T21:16:06.111Z,11.48
2023-05-14T21:18:32.455Z,11.44
2023-05-14T21:20:58.695Z,11.41
2023-05-14T21:23:24.926Z,11.35
2023-05-14T21:25:51.195Z,11.25
2023-05-14T21:28:17.420Z,11.16
2023-05-14T21:30:43.647Z,11.10
2023-05-14T21:33:10.032Z,11.01
2023-05-14T21:35:36.317Z,10.98
2023-05-14T21:38:02.590Z,10.81
2023-05-14T21:40:28.890Z,10.68
2023-05-14T21:42:55.124Z,10.66
2023-05-14T21:45:23.387Z,10.60
2023-05-14T21:47:50.023Z,10.57
2023-05-14T21:50:16.368Z,10.51
2023-05-14T21:52:42.610Z,10.31
2023-05-14T21:55:08.854Z,10.28
2023-05-14T21:57:35.095Z,10.25
2023-05-14T22:00:01.347Z,10.20
2023-05-14T22:02:27.599Z,10.21
2023-05-14T22:04:53.844Z,10.22
2023-05-14T22:07:20.063Z,10.23
2023-05-14T22:09:46.283Z,10.22
2023-05-14T22:12:16.842Z,10.24
2023-05-14T22:14:53.654Z,10.27
2023-05-14T22:17:19.932Z,10.31
2023-05-14T22:19:46.162Z,10.36
2023-05-14T22:22:12.386Z,10.35
2023-05-14T22:24:38.635Z,10.36
2023-05-14T22:27:04.902Z,10.43
2023-05-14T22:29:31.152Z,10.46
2023-05-14T22:31:57.552Z,10.48
2023-05-14T22:34:23.993Z,10.49
2023-05-14T22:36:50.340Z,10.56
2023-05-14T22:39:16.601Z,10.55
2023-05-14T22:41:42.847Z,10.64
2023-05-14T22:44:09.077Z,10.71
2023-05-14T22:46:35.381Z,10.56
2023-05-14T22:49:01.628Z,10.48
2023-05-14T22:51:27.851Z,10.39
2023-05-14T22:53:54.118Z,10.28
2023-05-14T22:56:20.398Z,10.28
2023-05-14T22:58:46.645Z,10.33
2023-05-14T23:01:12.941Z,10.42
2023-05-14T23:03:39.244Z,10.62
2023-05-14T23:06:05.502Z,10.72
2023-05-14T23:08:31.742Z,10.82
2023-05-14T23:10:57.982Z,10.91
2023-05-14T23:13:24.269Z,11.02
2023-05-14T23:15:50.502Z,11.08
2023-05-14T23:18:16.805Z,11.04
2023-05-14T23:20:43.176Z,10.64
2023-05-14T23:23:09.416Z,10.60
2023-05-14T23:25:35.682Z,9.90
2023-05-14T23:28:01.928Z,9.77
2023-05-14T23:30:28.168Z,10.04
2023-05-14T23:32:54.619Z,10.19
2023-05-14T23:35:20.898Z,10.32
2023-05-14T23:37:47.422Z,10.46
2023-05-14T23:40:13.755Z,10.58
2023-05-14T23:42:39.992Z,10.66
2023-05-14T23:45:06.202Z,10.69
2023-05-14T23:47:32.468Z,10.65
2023-05-14T23:49:58.737Z,10.77
2023-05-14T23:52:24.964Z,10.76
2023-05-14T23:54:51.173Z,10.74
2023-05-14T23:57:17.391Z,10.76
2023-05-14T23:59:43.596Z,10.77
